Time,TemperatureF,DewpointF,PressureIn,WindDirection,WindDirectionDegrees,WindSpeedMPH,WindSpeedGustMPH,Humidity,HourlyPrecipIn,Conditions,Clouds,dailyrainin,SoftwareType,DateUTC
2013-12-08 00:00:00,31.6,30.1,30.52,SSW,203,3.0,3.0,94,0.00,,,0.00,Wunderground v.1.15,2013-12-08 07:00:00,
2013-12-08 00:10:00,31.6,30.1,30.53,WNW,301,2.0,3.0,94,0.00,,,0.00,Wunderground v.1.15,2013-12-08 07:10:00,
2013-12-08 00:20:00,31.3,29.8,30.53,NW,314,3.0,3.0,94,0.00,,,0.00,Wunderground v.1.15,2013-12-08 07:20:00,
2013-12-08 00:30:00,30.6,28.8,30.53,NW,309,3.0,4.0,93,0.00,,,0.00,Wunderground v.1.15,2013-12-08 07:30:00,
2013-12-08 00:40:00,30.2,28.2,30.53,NNW,331,5.0,5.0,92,0.00,,,0.00,Wunderground v.1.15,2013-12-08 07:40:00,
2013-12-08 00:50:00,29.9,27.6,30.54,NNW,328,5.0,7.0,91,0.00,,,0.00,Wunderground v.1.15,2013-12-08 07:50:00,
2013-12-08 01:00:00,29.8,27.2,30.54,NW,315,3.0,3.0,90,0.00,,,0.00,Wunderground v.1.15,2013-12-08 08:00:00,
2013-12-08 01:10:00,29.8,27.0,30.54,NW,312,2.0,2.0,89,0.00,,,0.00,Wunderground v.1.15,2013-12-08 08:10:00,
2013-12-08 01:20:00,29.8,25.0,30.55,WNW,296,4.0,4.0,82,0.00,,,0.00,Wunderground v.1.15,2013-12-08 08:20:00,
2013-12-08 01:30:00,29.8,24.4,30.55,WNW,302,4.0,4.0,80,0.00,,,0.00,Wunderground v.1.15,2013-12-08 08:30:00,
2013-12-08 01:40:00,29.6,23.6,30.55,WNW,287,3.0,3.0,78,0.00,,,0.00,Wunderground v.1.15,2013-12-08 08:40:00,
2013-12-08 01:50:00,29.4,22.8,30.55,WNW,302,2.0,4.0,76,0.00,,,0.00,Wunderground v.1.15,2013-12-08 08:50:00,
2013-12-08 02:00:00,29.2,22.6,30.56,NW,308,3.0,3.0,76,0.00,,,0.00,Wunderground v.1.15,2013-12-08 09:00:00,
2013-12-08 02:10:00,29.1,22.2,30.56,NNW,335,3.0,3.0,75,0.00,,,0.00,Wunderground v.1.15,2013-12-08 09:10:00,
2013-12-08 02:20:00,28.9,22.0,30.56,WNW,285,3.0,3.0,75,0.00,,,0.00,Wunderground v.1.15,2013-12-08 09:20:00,
2013-12-08 02:30:00,28.8,21.6,30.57,NW,320,3.0,4.0,74,0.00,,,0.00,Wunderground v.1.15,2013-12-08 09:30:00,
2013-12-08 02:40:00,28.6,21.7,30.58,WNW,301,3.0,3.0,75,0.00,,,0.00,Wunderground v.1.15,2013-12-08 09:40:00,
2013-12-08 02:50:00,28.4,21.8,30.58,WNW,284,2.0,2.0,76,0.00,,,0.00,Wunderground v.1.15,2013-12-08 09:50:00,
2013-12-08 03:00:00,28.2,21.0,30.58,NW,315,2.0,2.0,74,0.00,,,0.00,Wunderground v.1.15,2013-12-08 10:00:00,
2013-12-08 03:10:00,28.2,20.7,30.59,NW,326,3.0,5.0,73,0.00,,,0.00,Wunderground v.1.15,2013-12-08 10:10:00,
2013-12-08 03:20:00,28.3,20.4,30.59,WNW,287,4.0,4.0,72,0.00,,,0.00,Wunderground v.1.15,2013-12-08 10:20:00,
2013-12-08 03:30:00,28.1,19.9,30.58,West,260,3.0,3.0,71,0.00,,,0.00,Wunderground v.1.15,2013-12-08 10:30:00,
2013-12-08 03:40:00,27.8,19.9,30.59,WNW,290,3.0,3.0,72,0.00,,,0.00,Wunderground v.1.15,2013-12-08 10:40:00,
2013-12-08 03:50:00,27.3,19.5,30.60,WNW,285,2.0,2.0,72,0.00,,,0.00,Wunderground v.1.15,2013-12-08 10:50:00,
2013-12-08 04:00:00,26.6,19.1,30.60,NW,308,1.0,1.0,73,0.00,,,0.00,Wunderground v.1.15,2013-12-08 11:00:00,
2013-12-08 04:10:00,26.1,18.9,30.60,NE,41,0.0,0.0,74,0.00,,,0.00,Wunderground v.1.15,2013-12-08 11:10:00,
2013-12-08 04:20:00,25.9,19.1,30.60,NE,43,0.0,0.0,75,0.00,,,0.00,Wunderground v.1.15,2013-12-08 11:20:00,
2013-12-08 04:30:00,25.9,19.1,30.61,NE,43,0.0,0.0,75,0.00,,,0.00,Wunderground v.1.15,2013-12-08 11:30:00,
2013-12-08 04:40:00,25.5,19.6,30.61,NE,43,0.0,0.0,78,0.00,,,0.00,Wunderground v.1.15,2013-12-08 11:40:00,
2013-12-08 04:50:00,25.3,20.0,30.61,NE,43,0.0,0.0,80,0.00,,,0.00,Wunderground v.1.15,2013-12-08 11:50:00,
2013-12-08 05:00:00,25.8,19.9,30.61,East,84,0.0,0.0,78,0.00,,,0.00,Wunderground v.1.15,2013-12-08 12:00:00,
2013-12-08 05:10:00,26.1,19.9,30.61,ESE,102,0.0,0.0,77,0.00,,,0.00,Wunderground v.1.15,2013-12-08 12:10:00,
2013-12-08 05:20:00,25.9,19.7,30.62,NNE,27,0.0,0.0,77,0.00,,,0.00,Wunderground v.1.15,2013-12-08 12:20:00,
2013-12-08 05:30:00,25.8,19.6,30.62,NNE,26,1.0,1.0,77,0.00,,,0.00,Wunderground v.1.15,2013-12-08 12:30:00,
2013-12-08 05:40:00,25.4,19.5,30.62,NNE,20,1.0,1.0,78,0.00,,,0.00,Wunderground v.1.15,2013-12-08 12:40:00,
2013-12-08 05:50:00,24.7,19.1,30.63,NNE,20,0.0,0.0,79,0.00,,,0.00,Wunderground v.1.15,2013-12-08 12:50:00,
2013-12-08 06:00:00,23.8,18.8,30.63,NNE,20,0.0,0.0,81,0.00,,,0.00,Wunderground v.1.15,2013-12-08 13:00:00,
2013-12-08 06:15:00,22.9,17.9,30.64,NNE,32,1.0,1.0,81,0.00,,,0.00,Wunderground v.1.15,2013-12-08 13:15:00,
2013-12-08 06:20:00,22.7,17.7,30.64,NE,34,1.0,1.0,81,0.00,,,0.00,Wunderground v.1.15,2013-12-08 13:20:00,
2013-12-08 06:30:00,21.9,17.2,30.64,NE,37,1.0,1.0,82,0.00,,,0.00,Wunderground v.1.15,2013-12-08 13:30:00,
2013-12-08 06:40:00,21.2,17.1,30.65,NNE,18,1.0,1.0,84,0.00,,,0.00,Wunderground v.1.15,2013-12-08 13:40:00,
2013-12-08 06:50:00,20.4,16.6,30.66,North,1,0.0,0.0,85,0.00,,,0.00,Wunderground v.1.15,2013-12-08 13:50:00,
2013-12-08 07:00:00,20.0,16.5,30.66,NE,46,0.0,0.0,86,0.00,,,0.00,Wunderground v.1.15,2013-12-08 14:00:00,
2013-12-08 07:10:00,19.3,15.5,30.66,NNE,26,0.0,0.0,85,0.00,,,0.00,Wunderground v.1.15,2013-12-08 14:10:00,
2013-12-08 07:20:00,18.5,15.3,30.66,NNE,26,0.0,0.0,87,0.00,,,0.00,Wunderground v.1.15,2013-12-08 14:20:00,
2013-12-08 07:30:00,17.6,14.4,30.66,NNW,348,0.0,0.0,87,0.00,,,0.00,Wunderground v.1.15,2013-12-08 14:30:00,
2013-12-08 07:40:00,17.5,14.6,30.66,NNE,12,1.0,2.0,88,0.00,,,0.00,Wunderground v.1.15,2013-12-08 14:40:00,
2013-12-08 07:50:00,18.0,14.8,30.66,NNE,22,1.0,1.0,87,0.00,,,0.00,Wunderground v.1.15,2013-12-08 14:50:00,
2013-12-08 08:05:00,20.2,15.6,30.66,ENE,70,1.0,1.0,82,0.00,,,0.00,Wunderground v.1.15,2013-12-08 15:05:00,
2013-12-08 08:10:00,19.7,14.8,30.67,East,84,0.0,0.0,81,0.00,,,0.00,Wunderground v.1.15,2013-12-08 15:10:00,
2013-12-08 08:20:00,21.6,16.4,30.67,NE,56,0.0,1.0,80,0.00,,,0.00,Wunderground v.1.15,2013-12-08 15:20:00,
2013-12-08 08:30:00,20.6,15.1,30.67,NW,314,1.0,1.0,79,0.00,,,0.00,Wunderground v.1.15,2013-12-08 15:30:00,
2013-12-08 08:40:00,20.3,15.1,30.68,West,280,1.0,1.0,80,0.00,,,0.00,Wunderground v.1.15,2013-12-08 15:40:00,
2013-12-08 08:50:00,20.8,15.6,30.68,NW,309,1.0,2.0,80,0.00,,,0.00,Wunderground v.1.15,2013-12-08 15:50:00,
2013-12-08 09:00:00,22.4,16.9,30.68,WNW,302,1.0,2.0,79,0.00,,,0.00,Wunderground v.1.15,2013-12-08 16:00:00,
2013-12-08 09:10:00,24.1,17.0,30.69,NW,305,1.0,1.0,74,0.00,,,0.00,Wunderground v.1.15,2013-12-08 16:10:00,
2013-12-08 09:20:00,25.0,16.9,30.69,NNW,342,1.0,1.0,71,0.00,,,0.00,Wunderground v.1.15,2013-12-08 16:20:00,
2013-12-08 09:30:00,26.2,17.1,30.69,WNW,293,1.0,1.0,68,0.00,,,0.00,Wunderground v.1.15,2013-12-08 16:30:00,
2013-12-08 09:40:00,27.3,17.4,30.69,NW,316,1.0,1.0,66,0.00,,,0.00,Wunderground v.1.15,2013-12-08 16:40:00,
2013-12-08 09:50:00,28.4,14.7,30.69,NNE,31,1.0,1.0,56,0.00,,,0.00,Wunderground v.1.15,2013-12-08 16:50:00,
2013-12-08 10:00:00,29.7,14.2,30.69,WNW,300,1.0,3.0,52,0.00,,,0.00,Wunderground v.1.15,2013-12-08 17:00:00,
2013-12-08 10:10:00,30.4,13.5,30.70,WNW,298,1.0,1.0,49,0.00,,,0.00,Wunderground v.1.15,2013-12-08 17:10:00,
2013-12-08 10:20:00,31.0,12.1,30.70,NW,312,2.0,2.0,45,0.00,,,0.00,Wunderground v.1.15,2013-12-08 17:20:00,
2013-12-08 10:30:00,31.2,11.3,30.70,NW,324,2.0,2.0,43,0.00,,,0.00,Wunderground v.1.15,2013-12-08 17:30:00,
2013-12-08 10:40:00,31.6,12.7,30.70,NE,53,1.0,4.0,45,0.00,,,0.00,Wunderground v.1.15,2013-12-08 17:40:00,
2013-12-08 10:50:00,31.8,12.3,30.70,ENE,61,1.0,1.0,44,0.00,,,0.00,Wunderground v.1.15,2013-12-08 17:50:00,
2013-12-08 11:00:00,33.0,12.9,30.69,NE,39,0.0,2.0,43,0.00,,,0.00,Wunderground v.1.15,2013-12-08 18:00:00,
2013-12-08 11:10:00,33.0,12.4,30.69,SSW,203,2.0,2.0,42,0.00,,,0.00,Wunderground v.1.15,2013-12-08 18:10:00,
2013-12-08 11:20:00,33.7,13.5,30.69,WNW,284,1.0,1.0,43,0.00,,,0.00,Wunderground v.1.15,2013-12-08 18:20:00,
2013-12-08 11:30:00,33.8,14.2,30.69,WNW,297,1.0,1.0,44,0.00,,,0.00,Wunderground v.1.15,2013-12-08 18:30:00,
2013-12-08 11:40:00,34.2,15.5,30.69,West,281,1.0,2.0,46,0.00,,,0.00,Wunderground v.1.15,2013-12-08 18:40:00,
2013-12-08 11:50:00,34.7,13.9,30.69,ESE,102,1.0,1.0,42,0.00,,,0.00,Wunderground v.1.15,2013-12-08 18:50:00,
2013-12-08 12:00:00,35.2,14.9,30.68,SSE,152,1.0,1.0,43,0.00,,,0.00,Wunderground v.1.15,2013-12-08 19:00:00,
2013-12-08 12:10:00,35.6,17.3,30.67,SE,132,1.0,1.0,47,0.00,,,0.00,Wunderground v.1.15,2013-12-08 19:10:00,
2013-12-08 12:20:00,35.3,17.5,30.66,West,270,1.0,5.0,48,0.00,,,0.00,Wunderground v.1.15,2013-12-08 19:20:00,
2013-12-08 12:30:00,34.6,17.8,30.66,WNW,284,2.0,2.0,50,0.00,,,0.00,Wunderground v.1.15,2013-12-08 19:30:00,
2013-12-08 12:40:00,34.4,16.7,30.64,WSW,237,2.0,2.0,48,0.00,,,0.00,Wunderground v.1.15,2013-12-08 19:40:00,
2013-12-08 12:50:00,34.7,17.0,30.64,SSW,212,2.0,2.0,48,0.00,,,0.00,Wunderground v.1.15,2013-12-08 19:50:00,
2013-12-08 13:00:00,35.0,16.3,30.63,South,180,2.0,2.0,46,0.00,,,0.00,Wunderground v.1.15,2013-12-08 20:00:00,
2013-12-08 13:10:00,34.1,14.4,30.63,West,273,2.0,5.0,44,0.00,,,0.00,Wunderground v.1.15,2013-12-08 20:10:00,
2013-12-08 13:20:00,33.4,15.3,30.62,West,281,3.0,4.0,47,0.00,,,0.00,Wunderground v.1.15,2013-12-08 20:20:00,
2013-12-08 13:30:00,33.3,15.2,30.61,West,278,2.0,2.0,47,0.00,,,0.00,Wunderground v.1.15,2013-12-08 20:30:00,
2013-12-08 13:40:00,33.3,14.2,30.61,West,276,2.0,2.0,45,0.00,,,0.00,Wunderground v.1.15,2013-12-08 20:40:00,
2013-12-08 13:50:00,33.5,13.4,30.61,WNW,298,2.0,2.0,43,0.00,,,0.00,Wunderground v.1.15,2013-12-08 20:50:00,
2013-12-08 14:00:00,33.9,13.7,30.60,WNW,302,2.0,2.0,43,0.00,,,0.00,Wunderground v.1.15,2013-12-08 21:00:00,
2013-12-08 14:10:00,34.5,12.6,30.60,SSW,212,1.0,1.0,40,0.00,,,0.00,Wunderground v.1.15,2013-12-08 21:10:00,
2013-12-08 14:20:00,34.4,15.7,30.60,West,269,1.0,1.0,46,0.00,,,0.00,Wunderground v.1.15,2013-12-08 21:20:00,
2013-12-08 14:30:00,34.4,13.6,30.60,SW,229,1.0,1.0,42,0.00,,,0.00,Wunderground v.1.15,2013-12-08 21:30:00,
2013-12-08 14:40:00,34.1,12.3,30.60,WNW,284,1.0,1.0,40,0.00,,,0.00,Wunderground v.1.15,2013-12-08 21:40:00,
2013-12-08 14:50:00,33.7,11.9,30.60,West,276,1.0,1.0,40,0.00,,,0.00,Wunderground v.1.15,2013-12-08 21:50:00,
2013-12-08 15:00:00,33.6,14.0,30.60,West,274,1.0,2.0,44,0.00,,,0.00,Wunderground v.1.15,2013-12-08 22:00:00,
2013-12-08 15:10:00,32.9,13.9,30.60,WNW,295,2.0,3.0,45,0.00,,,0.00,Wunderground v.1.15,2013-12-08 22:10:00,
2013-12-08 15:20:00,33.3,15.2,30.60,NNW,330,2.0,2.0,47,0.00,,,0.00,Wunderground v.1.15,2013-12-08 22:20:00,
2013-12-08 15:30:00,33.9,15.8,30.59,WNW,302,1.0,1.0,47,0.00,,,0.00,Wunderground v.1.15,2013-12-08 22:30:00,
2013-12-08 15:40:00,34.0,14.3,30.59,NW,315,2.0,2.0,44,0.00,,,0.00,Wunderground v.1.15,2013-12-08 22:40:00,
2013-12-08 15:50:00,33.7,14.1,30.59,West,277,1.0,1.0,44,0.00,,,0.00,Wunderground v.1.15,2013-12-08 22:50:00,
2013-12-08 16:00:00,34.0,14.3,30.59,WSW,255,1.0,1.0,44,0.00,,,0.00,Wunderground v.1.15,2013-12-08 23:00:00,
2013-12-08 16:10:00,34.5,14.3,30.59,NW,304,2.0,4.0,43,0.00,,,0.00,Wunderground v.1.15,2013-12-08 23:10:00,
2013-12-08 16:20:00,34.7,15.0,30.60,WNW,288,3.0,3.0,44,0.00,,,0.00,Wunderground v.1.15,2013-12-08 23:20:00,
2013-12-08 16:30:00,33.6,14.5,30.60,WNW,302,3.0,3.0,45,0.00,,,0.00,Wunderground v.1.15,2013-12-08 23:30:00,
2013-12-08 16:40:00,33.3,15.2,30.60,NW,304,2.0,3.0,47,0.00,,,0.00,Wunderground v.1.15,2013-12-08 23:40:00,
2013-12-08 16:50:00,32.3,14.3,30.60,NW,324,3.0,3.0,47,0.00,,,0.00,Wunderground v.1.15,2013-12-08 23:50:00,
2013-12-08 17:00:00,31.5,14.5,30.60,NW,321,1.0,1.0,49,0.00,,,0.00,Wunderground v.1.15,2013-12-09 00:00:00,
2013-12-08 17:10:00,31.3,13.9,30.60,NNE,18,0.0,1.0,48,0.00,,,0.00,Wunderground v.1.15,2013-12-09 00:10:00,
2013-12-08 17:20:00,30.3,12.9,30.61,NNW,348,2.0,2.0,48,0.00,,,0.00,Wunderground v.1.15,2013-12-09 00:20:00,
2013-12-08 17:30:00,29.2,11.9,30.61,NNW,330,2.0,2.0,48,0.00,,,0.00,Wunderground v.1.15,2013-12-09 00:30:00,
2013-12-08 17:40:00,28.6,12.3,30.61,NE,44,1.0,1.0,50,0.00,,,0.00,Wunderground v.1.15,2013-12-09 00:40:00,
2013-12-08 17:50:00,27.9,12.5,30.62,North,5,1.0,1.0,52,0.00,,,0.00,Wunderground v.1.15,2013-12-09 00:50:00,
2013-12-08 18:00:00,27.2,11.9,30.62,NNW,338,1.0,1.0,52,0.00,,,0.00,Wunderground v.1.15,2013-12-09 01:00:00,
2013-12-08 18:10:00,26.6,11.3,30.61,NW,314,0.0,0.0,52,0.00,,,0.00,Wunderground v.1.15,2013-12-09 01:10:00,
2013-12-08 18:20:00,26.0,12.0,30.62,NW,316,1.0,1.0,55,0.00,,,0.00,Wunderground v.1.15,2013-12-09 01:20:00,
2013-12-08 18:30:00,25.3,11.4,30.63,NNW,345,1.0,1.0,55,0.00,,,0.00,Wunderground v.1.15,2013-12-09 01:30:00,
2013-12-08 18:40:00,24.6,10.7,30.64,NW,326,2.0,2.0,55,0.00,,,0.00,Wunderground v.1.15,2013-12-09 01:40:00,
2013-12-08 18:50:00,23.9,9.6,30.64,North,354,2.0,2.0,54,0.00,,,0.00,Wunderground v.1.15,2013-12-09 01:50:00,
2013-12-08 19:00:00,23.3,8.7,30.64,NNE,27,2.0,2.0,53,0.00,,,0.00,Wunderground v.1.15,2013-12-09 02:00:00,
2013-12-08 19:10:00,22.9,7.9,30.64,North,8,2.0,2.0,52,0.00,,,0.00,Wunderground v.1.15,2013-12-09 02:10:00,
2013-12-08 19:20:00,22.4,7.4,30.64,North,349,2.0,2.0,52,0.00,,,0.00,Wunderground v.1.15,2013-12-09 02:20:00,
2013-12-08 19:30:00,21.7,7.2,30.64,NNE,31,2.0,2.0,53,0.00,,,0.00,Wunderground v.1.15,2013-12-09 02:30:00,
2013-12-08 19:40:00,21.2,6.7,30.64,NNE,14,1.0,1.0,53,0.00,,,0.00,Wunderground v.1.15,2013-12-09 02:40:00,
2013-12-08 19:50:00,20.6,6.6,30.65,NNE,23,1.0,1.0,54,0.00,,,0.00,Wunderground v.1.15,2013-12-09 02:50:00,
2013-12-08 20:00:00,19.8,6.2,30.65,NNE,26,0.0,0.0,55,0.00,,,0.00,Wunderground v.1.15,2013-12-09 03:00:00,
2013-12-08 20:10:00,18.6,5.9,30.65,NNW,342,0.0,0.0,57,0.00,,,0.00,Wunderground v.1.15,2013-12-09 03:10:00,
2013-12-08 20:20:00,17.7,5.8,30.66,North,6,0.0,0.0,59,0.00,,,0.00,Wunderground v.1.15,2013-12-09 03:20:00,
2013-12-08 20:30:00,17.7,5.4,30.66,NNE,12,1.0,1.0,58,0.00,,,0.00,Wunderground v.1.15,2013-12-09 03:30:00,
2013-12-08 20:40:00,17.6,5.7,30.66,NNE,20,2.0,2.0,59,0.00,,,0.00,Wunderground v.1.15,2013-12-09 03:40:00,
2013-12-08 20:50:00,16.6,5.5,30.67,NW,311,1.0,1.0,61,0.00,,,0.00,Wunderground v.1.15,2013-12-09 03:50:00,
2013-12-08 21:00:00,15.6,5.2,30.68,North,11,1.0,1.0,63,0.00,,,0.00,Wunderground v.1.15,2013-12-09 04:00:00,
2013-12-08 21:10:00,15.3,5.3,30.68,NNE,20,2.0,2.0,64,0.00,,,0.00,Wunderground v.1.15,2013-12-09 04:10:00,
2013-12-08 21:20:00,14.8,5.2,30.69,North,349,2.0,2.0,65,0.00,,,0.00,Wunderground v.1.15,2013-12-09 04:20:00,
2013-12-08 21:30:00,14.0,5.1,30.69,NNE,13,1.0,2.0,67,0.00,,,0.00,Wunderground v.1.15,2013-12-09 04:30:00,
2013-12-08 21:40:00,13.6,4.7,30.69,North,358,2.0,2.0,67,0.00,,,0.00,Wunderground v.1.15,2013-12-09 04:40:00,
2013-12-08 21:50:00,13.2,4.6,30.69,NNW,344,2.0,2.0,68,0.00,,,0.00,Wunderground v.1.15,2013-12-09 04:50:00,
2013-12-08 22:00:00,12.8,4.2,30.69,North,354,2.0,2.0,68,0.00,,,0.00,Wunderground v.1.15,2013-12-09 05:00:00,
2013-12-08 22:05:00,12.5,3.9,30.70,North,10,1.0,2.0,68,0.00,,,0.00,Wunderground v.1.15,2013-12-09 05:05:00,
2013-12-08 22:10:00,12.4,3.8,30.70,NNW,328,1.0,1.0,68,0.00,,,0.00,Wunderground v.1.15,2013-12-09 05:10:00,
2013-12-08 22:20:00,12.1,3.6,30.71,North,9,2.0,2.0,68,0.00,,,0.00,Wunderground v.1.15,2013-12-09 05:20:00,
2013-12-08 22:25:00,12.0,3.8,30.71,NNE,14,2.0,2.0,69,0.00,,,0.00,Wunderground v.1.15,2013-12-09 05:25:00,
2013-12-08 22:30:00,11.9,3.7,30.72,NNW,348,2.0,2.0,69,0.00,,,0.00,Wunderground v.1.15,2013-12-09 05:30:00,
2013-12-08 22:35:00,11.8,3.6,30.72,NW,325,1.0,2.0,69,0.00,,,0.00,Wunderground v.1.15,2013-12-09 05:35:00,
2013-12-08 22:40:00,11.9,3.7,30.72,North,352,1.0,1.0,69,0.00,,,0.00,Wunderground v.1.15,2013-12-09 05:40:00,
2013-12-08 22:50:00,12.2,3.6,30.72,NNW,338,2.0,3.0,68,0.00,,,0.00,Wunderground v.1.15,2013-12-09 05:50:00,
2013-12-08 23:00:00,12.2,3.3,30.73,NNW,335,2.0,2.0,67,0.00,,,0.00,Wunderground v.1.15,2013-12-09 06:00:00,
2013-12-08 23:10:00,12.1,3.2,30.73,NNE,27,2.0,3.0,67,0.00,,,0.00,Wunderground v.1.15,2013-12-09 06:10:00,
2013-12-08 23:20:00,12.2,3.0,30.73,NNW,329,2.0,2.0,66,0.00,,,0.00,Wunderground v.1.15,2013-12-09 06:20:00,
2013-12-08 23:25:00,12.4,3.2,30.74,NNE,12,2.0,3.0,66,0.00,,,0.00,Wunderground v.1.15,2013-12-09 06:25:00,
2013-12-08 23:30:00,12.4,2.9,30.74,North,10,2.0,3.0,65,0.00,,,0.00,Wunderground v.1.15,2013-12-09 06:30:00,
2013-12-08 23:40:00,11.9,2.7,30.74,North,352,3.0,3.0,66,0.00,,,0.00,Wunderground v.1.15,2013-12-09 06:40:00,
2013-12-08 23:50:00,11.2,2.4,30.75,NNW,347,2.0,2.0,67,0.00,,,0.00,Wunderground v.1.15,2013-12-09 06:50:00,